sensor_id;sensor_type;location;lat;lon;timestamp;temperature;humidity
71142;DHT22;58808;59.366;17.970;2022-07-29T00:01:17;14.00;99.90
71142;DHT22;58808;59.366;17.970;2022-07-29T00:03:43;13.90;99.90
71142;DHT22;58808;59.366;17.970;2022-07-29T00:06:08;13.90;99.90
71142;DHT22;58808;59.366;17.970;2022-07-29T00:08:34;13.80;99.90
71142;DHT22;58808;59.366;17.970;2022-07-29T00:11:00;13.80;99.90
71142;DHT22;58808;59.366;17.970;2022-07-29T00:13:25;13.80;99.90
71142;DHT22;58808;59.366;17.970;2022-07-29T00:15:51;13.80;99.90
71142;DHT22;58808;59.366;17.970;2022-07-29T00:18:16;13.80;99.90
71142;DHT22;58808;59.366;17.970;2022-07-29T00:20:44;13.80;99.90
71142;DHT22;58808;59.366;17.970;2022-07-29T00:23:10;13.80;99.90
71142;DHT22;58808;59.366;17.970;2022-07-29T00:25:35;13.70;99.90
71142;DHT22;58808;59.366;17.970;2022-07-29T00:28:01;13.70;99.90
71142;DHT22;58808;59.366;17.970;2022-07-29T00:30:26;13.60;99.90
71142;DHT22;58808;59.366;17.970;2022-07-29T00:32:52;13.50;99.90
71142;DHT22;58808;59.366;17.970;2022-07-29T00:35:18;13.60;99.90
71142;DHT22;58808;59.366;17.970;2022-07-29T00:38:02;13.50;99.90
71142;DHT22;58808;59.366;17.970;2022-07-29T00:40:27;13.50;99.90
71142;DHT22;58808;59.366;17.970;2022-07-29T00:42:53;13.50;99.90
71142;DHT22;58808;59.366;17.970;2022-07-29T00:45:19;13.50;99.90
71142;DHT22;58808;59.366;17.970;2022-07-29T00:47:45;13.60;99.90
71142;DHT22;58808;59.366;17.970;2022-07-29T00:50:12;13.70;99.90
71142;DHT22;58808;59.366;17.970;2022-07-29T00:52:39;13.70;99.90
71142;DHT22;58808;59.366;17.970;2022-07-29T00:55:08;13.70;99.90
71142;DHT22;58808;59.366;17.970;2022-07-29T00:57:35;13.60;99.90
71142;DHT22;58808;59.366;17.970;2022-07-29T01:00:02;13.60;99.90
71142;DHT22;58808;59.366;17.970;2022-07-29T01:02:28;13.50;99.90
71142;DHT22;58808;59.366;17.970;2022-07-29T01:04:53;13.50;99.90
71142;DHT22;58808;59.366;17.970;2022-07-29T01:07:20;13.40;99.90
71142;DHT22;58808;59.366;17.970;2022-07-29T01:09:46;13.30;99.90
71142;DHT22;58808;59.366;17.970;2022-07-29T01:12:18;13.30;99.90
71142;DHT22;58808;59.366;17.970;2022-07-29T01:14:46;13.20;99.90
71142;DHT22;58808;59.366;17.970;2022-07-29T01:17:33;13.20;99.90
71142;DHT22;58808;59.366;17.970;2022-07-29T01:31:04;13.00;99.90
71142;DHT22;58808;59.366;17.970;2022-07-29T01:33:32;13.00;99.90
71142;DHT22;58808;59.366;17.970;2022-07-29T01:36:25;12.90;99.90
71142;DHT22;58808;59.366;17.970;2022-07-29T01:39:19;12.90;99.90
71142;DHT22;58808;59.366;17.970;2022-07-29T01:44:37;12.80;99.90
71142;DHT22;58808;59.366;17.970;2022-07-29T01:47:10;12.80;99.90
71142;DHT22;58808;59.366;17.970;2022-07-29T01:49:43;12.80;99.90
71142;DHT22;58808;59.366;17.970;2022-07-29T01:52:19;12.70;99.90
71142;DHT22;58808;59.366;17.970;2022-07-29T01:54:52;12.70;99.90
71142;DHT22;58808;59.366;17.970;2022-07-29T01:57:20;12.70;99.90
71142;DHT22;58808;59.366;17.970;2022-07-29T01:59:47;12.70;99.90
71142;DHT22;58808;59.366;17.970;2022-07-29T02:02:15;12.70;99.90
71142;DHT22;58808;59.366;17.970;2022-07-29T02:04:43;12.60;99.90
71142;DHT22;58808;59.366;17.970;2022-07-29T02:07:12;12.60;99.90
71142;DHT22;58808;59.366;17.970;2022-07-29T02:09:39;12.60;99.90
71142;DHT22;58808;59.366;17.970;2022-07-29T02:12:07;12.50;99.90
71142;DHT22;58808;59.366;17.970;2022-07-29T02:14:38;12.50;99.90
71142;DHT22;58808;59.366;17.970;2022-07-29T02:17:05;12.50;99.90
71142;DHT22;58808;59.366;17.970;2022-07-29T02:19:32;12.40;99.90
71142;DHT22;58808;59.366;17.970;2022-07-29T02:22:00;12.40;99.90
71142;DHT22;58808;59.366;17.970;2022-07-29T02:24:27;12.40;99.90
71142;DHT22;58808;59.366;17.970;2022-07-29T02:26:56;12.40;99.90
71142;DHT22;58808;59.366;17.970;2022-07-29T02:29:25;12.40;99.90
71142;DHT22;58808;59.366;17.970;2022-07-29T02:31:52;12.40;99.90
71142;DHT22;58808;59.366;17.970;2022-07-29T02:34:20;12.40;99.90
71142;DHT22;58808;59.366;17.970;2022-07-29T02:36:47;12.40;99.90
71142;DHT22;58808;59.366;17.970;2022-07-29T02:39:15;12.40;99.90
71142;DHT22;58808;59.366;17.970;2022-07-29T02:41:47;12.30;99.90
71142;DHT22;58808;59.366;17.970;2022-07-29T02:44:18;12.30;99.90
71142;DHT22;58808;59.366;17.970;2022-07-29T02:46:50;12.30;99.90
71142;DHT22;58808;59.366;17.970;2022-07-29T02:51:53;12.30;99.90
71142;DHT22;58808;59.366;17.970;2022-07-29T02:54:28;12.20;99.90
71142;DHT22;58808;59.366;17.970;2022-07-29T02:56:58;12.20;99.90
71142;DHT22;58808;59.366;17.970;2022-07-29T02:59:26;12.20;99.90
71142;DHT22;58808;59.366;17.970;2022-07-29T03:01:54;12.20;99.90
71142;DHT22;58808;59.366;17.970;2022-07-29T03:04:21;12.20;99.90
71142;DHT22;58808;59.366;17.970;2022-07-29T03:06:49;12.30;99.90
71142;DHT22;58808;59.366;17.970;2022-07-29T03:09:16;12.40;99.90
71142;DHT22;58808;59.366;17.970;2022-07-29T03:11:43;12.40;99.90
71142;DHT22;58808;59.366;17.970;2022-07-29T03:14:09;12.30;99.90
71142;DHT22;58808;59.366;17.970;2022-07-29T03:16:35;12.40;99.90
71142;DHT22;58808;59.366;17.970;2022-07-29T03:19:03;12.40;99.90
71142;DHT22;58808;59.366;17.970;2022-07-29T03:21:29;12.40;99.90
71142;DHT22;58808;59.366;17.970;2022-07-29T03:23:55;12.30;99.90
71142;DHT22;58808;59.366;17.970;2022-07-29T03:26:20;12.40;99.90
71142;DHT22;58808;59.366;17.970;2022-07-29T03:28:46;12.30;99.90
71142;DHT22;58808;59.366;17.970;2022-07-29T03:31:12;12.30;99.90
71142;DHT22;58808;59.366;17.970;2022-07-29T03:33:37;12.40;99.90
71142;DHT22;58808;59.366;17.970;2022-07-29T03:36:03;12.50;99.90
71142;DHT22;58808;59.366;17.970;2022-07-29T03:38:30;12.40;99.90
71142;DHT22;58808;59.366;17.970;2022-07-29T03:41:01;12.40;99.90
71142;DHT22;58808;59.366;17.970;2022-07-29T03:43:31;12.50;99.90
71142;DHT22;58808;59.366;17.970;2022-07-29T03:45:57;12.60;99.90
71142;DHT22;58808;59.366;17.970;2022-07-29T03:48:25;12.70;99.90
71142;DHT22;58808;59.366;17.970;2022-07-29T03:50:51;12.60;99.90
71142;DHT22;58808;59.366;17.970;2022-07-29T03:53:18;12.60;99.90
71142;DHT22;58808;59.366;17.970;2022-07-29T03:55:46;12.50;99.90
71142;DHT22;58808;59.366;17.970;2022-07-29T03:58:13;12.50;99.90
71142;DHT22;58808;59.366;17.970;2022-07-29T04:00:41;12.50;99.90
71142;DHT22;58808;59.366;17.970;2022-07-29T04:03:08;12.50;99.90
71142;DHT22;58808;59.366;17.970;2022-07-29T04:05:34;12.50;99.90
71142;DHT22;58808;59.366;17.970;2022-07-29T04:08:00;12.60;99.90
71142;DHT22;58808;59.366;17.970;2022-07-29T04:10:26;12.60;99.90
71142;DHT22;58808;59.366;17.970;2022-07-29T04:12:51;12.60;99.90
71142;DHT22;58808;59.366;17.970;2022-07-29T04:15:18;12.60;99.90
71142;DHT22;58808;59.366;17.970;2022-07-29T04:17:43;12.70;99.90
71142;DHT22;58808;59.366;17.970;2022-07-29T04:20:10;12.70;99.90
71142;DHT22;58808;59.366;17.970;2022-07-29T04:22:38;12.80;99.90
71142;DHT22;58808;59.366;17.970;2022-07-29T04:25:04;12.90;99.90
71142;DHT22;58808;59.366;17.970;2022-07-29T04:27:30;12.90;99.90
71142;DHT22;58808;59.366;17.970;2022-07-29T04:29:55;12.90;99.90
71142;DHT22;58808;59.366;17.970;2022-07-29T04:32:24;13.00;99.90
71142;DHT22;58808;59.366;17.970;2022-07-29T04:34:50;13.10;99.90
71142;DHT22;58808;59.366;17.970;2022-07-29T04:37:16;13.10;99.90
71142;DHT22;58808;59.366;17.970;2022-07-29T04:39:41;13.20;99.90
71142;DHT22;58808;59.366;17.970;2022-07-29T04:42:07;13.40;99.90
71142;DHT22;58808;59.366;17.970;2022-07-29T04:44:32;13.60;99.90
71142;DHT22;58808;59.366;17.970;2022-07-29T04:46:58;13.70;99.90
71142;DHT22;58808;59.366;17.970;2022-07-29T04:49:24;13.90;99.90
71142;DHT22;58808;59.366;17.970;2022-07-29T04:51:52;14.10;99.90
71142;DHT22;58808;59.366;17.970;2022-07-29T04:54:18;14.20;99.90
71142;DHT22;58808;59.366;17.970;2022-07-29T04:56:44;14.40;99.90
71142;DHT22;58808;59.366;17.970;2022-07-29T04:59:09;14.50;99.90
71142;DHT22;58808;59.366;17.970;2022-07-29T05:01:35;14.60;99.90
71142;DHT22;58808;59.366;17.970;2022-07-29T05:04:00;14.70;99.90
71142;DHT22;58808;59.366;17.970;2022-07-29T05:06:26;14.70;99.90
71142;DHT22;58808;59.366;17.970;2022-07-29T05:08:52;14.80;99.90
71142;DHT22;58808;59.366;17.970;2022-07-29T05:11:17;14.90;99.90
71142;DHT22;58808;59.366;17.970;2022-07-29T05:13:43;14.90;99.90
71142;DHT22;58808;59.366;17.970;2022-07-29T05:16:09;15.00;99.90
71142;DHT22;58808;59.366;17.970;2022-07-29T05:18:34;15.00;99.90
71142;DHT22;58808;59.366;17.970;2022-07-29T05:21:00;15.00;99.90
71142;DHT22;58808;59.366;17.970;2022-07-29T05:23:25;15.10;99.90
71142;DHT22;58808;59.366;17.970;2022-07-29T05:25:51;15.10;99.90
71142;DHT22;58808;59.366;17.970;2022-07-29T05:28:16;15.10;99.90
71142;DHT22;58808;59.366;17.970;2022-07-29T05:30:42;15.10;99.90
71142;DHT22;58808;59.366;17.970;2022-07-29T05:33:10;15.00;99.90
71142;DHT22;58808;59.366;17.970;2022-07-29T05:35:36;15.00;99.90
71142;DHT22;58808;59.366;17.970;2022-07-29T05:38:03;15.00;99.90
71142;DHT22;58808;59.366;17.970;2022-07-29T05:40:28;15.10;99.90
71142;DHT22;58808;59.366;17.970;2022-07-29T05:42:54;15.10;99.90
71142;DHT22;58808;59.366;17.970;2022-07-29T05:45:20;15.10;99.90
71142;DHT22;58808;59.366;17.970;2022-07-29T05:47:45;15.10;99.90
71142;DHT22;58808;59.366;17.970;2022-07-29T05:50:11;15.30;99.90
71142;DHT22;58808;59.366;17.970;2022-07-29T05:52:36;15.30;99.90
71142;DHT22;58808;59.366;17.970;2022-07-29T05:55:02;15.40;99.90
71142;DHT22;58808;59.366;17.970;2022-07-29T05:57:30;15.40;99.90
71142;DHT22;58808;59.366;17.970;2022-07-29T05:59:56;15.40;99.90
71142;DHT22;58808;59.366;17.970;2022-07-29T06:02:22;15.50;99.90
71142;DHT22;58808;59.366;17.970;2022-07-29T06:04:48;15.50;99.90
71142;DHT22;58808;59.366;17.970;2022-07-29T06:07:14;15.50;99.90
71142;DHT22;58808;59.366;17.970;2022-07-29T06:09:43;15.60;99.90
71142;DHT22;58808;59.366;17.970;2022-07-29T06:12:09;15.60;99.90
71142;DHT22;58808;59.366;17.970;2022-07-29T06:14:35;15.60;99.90
71142;DHT22;58808;59.366;17.970;2022-07-29T06:17:01;15.70;99.90
71142;DHT22;58808;59.366;17.970;2022-07-29T06:19:27;15.80;99.90
71142;DHT22;58808;59.366;17.970;2022-07-29T06:21:52;15.80;99.80
71142;DHT22;58808;59.366;17.970;2022-07-29T06:24:18;16.10;97.80
71142;DHT22;58808;59.366;17.970;2022-07-29T06:26:44;16.20;98.90
71142;DHT22;58808;59.366;17.970;2022-07-29T06:29:11;16.20;99.90
71142;DHT22;58808;59.366;17.970;2022-07-29T06:31:37;16.30;96.20
71142;DHT22;58808;59.366;17.970;2022-07-29T06:34:03;16.30;96.00
71142;DHT22;58808;59.366;17.970;2022-07-29T06:36:29;16.30;94.80
71142;DHT22;58808;59.366;17.970;2022-07-29T06:38:54;16.30;91.80
71142;DHT22;58808;59.366;17.970;2022-07-29T06:41:20;16.30;88.00
71142;DHT22;58808;59.366;17.970;2022-07-29T06:43:46;16.40;90.30
71142;DHT22;58808;59.366;17.970;2022-07-29T06:46:14;16.50;92.10
71142;DHT22;58808;59.366;17.970;2022-07-29T06:48:41;16.50;93.50
71142;DHT22;58808;59.366;17.970;2022-07-29T06:51:26;16.60;92.90
71142;DHT22;58808;59.366;17.970;2022-07-29T06:53:52;16.90;84.70
71142;DHT22;58808;59.366;17.970;2022-07-29T06:56:21;17.00;80.10
71142;DHT22;58808;59.366;17.970;2022-07-29T06:58:50;17.10;86.60
71142;DHT22;58808;59.366;17.970;2022-07-29T07:01:15;17.20;87.60
71142;DHT22;58808;59.366;17.970;2022-07-29T07:03:41;17.40;82.60
71142;DHT22;58808;59.366;17.970;2022-07-29T07:06:07;17.50;89.40
71142;DHT22;58808;59.366;17.970;2022-07-29T07:08:33;17.70;90.80
71142;DHT22;58808;59.366;17.970;2022-07-29T07:11:01;18.00;81.30
71142;DHT22;58808;59.366;17.970;2022-07-29T07:13:27;18.30;70.60
71142;DHT22;58808;59.366;17.970;2022-07-29T07:15:53;18.50;62.70
71142;DHT22;58808;59.366;17.970;2022-07-29T07:18:19;18.80;56.40
71142;DHT22;58808;59.366;17.970;2022-07-29T07:20:47;19.00;54.90
71142;DHT22;58808;59.366;17.970;2022-07-29T07:23:13;19.10;53.70
71142;DHT22;58808;59.366;17.970;2022-07-29T07:25:38;19.30;51.90
71142;DHT22;58808;59.366;17.970;2022-07-29T07:28:04;19.50;52.20
71142;DHT22;58808;59.366;17.970;2022-07-29T07:30:30;19.70;47.60
71142;DHT22;58808;59.366;17.970;2022-07-29T07:32:56;19.70;48.20
71142;DHT22;58808;59.366;17.970;2022-07-29T07:35:21;19.90;48.70
71142;DHT22;58808;59.366;17.970;2022-07-29T07:37:47;20.10;48.20
71142;DHT22;58808;59.366;17.970;2022-07-29T07:40:13;20.50;51.70
71142;DHT22;58808;59.366;17.970;2022-07-29T07:42:40;20.70;49.60
71142;DHT22;58808;59.366;17.970;2022-07-29T07:45:06;21.00;49.40
71142;DHT22;58808;59.366;17.970;2022-07-29T07:47:35;21.10;49.50
71142;DHT22;58808;59.366;17.970;2022-07-29T07:50:00;21.10;45.90
71142;DHT22;58808;59.366;17.970;2022-07-29T07:52:26;21.10;44.50
71142;DHT22;58808;59.366;17.970;2022-07-29T07:54:51;21.40;47.50
71142;DHT22;58808;59.366;17.970;2022-07-29T07:57:18;21.40;43.80
71142;DHT22;58808;59.366;17.970;2022-07-29T07:59:43;21.00;44.60
71142;DHT22;58808;59.366;17.970;2022-07-29T08:02:09;20.90;45.80
71142;DHT22;58808;59.366;17.970;2022-07-29T08:04:35;21.30;46.30
71142;DHT22;58808;59.366;17.970;2022-07-29T08:07:02;21.60;45.60
71142;DHT22;58808;59.366;17.970;2022-07-29T08:09:29;21.80;45.40
71142;DHT22;58808;59.366;17.970;2022-07-29T08:11:56;22.00;42.70
71142;DHT22;58808;59.366;17.970;2022-07-29T08:14:23;22.00;44.20
71142;DHT22;58808;59.366;17.970;2022-07-29T08:16:48;22.00;42.70
71142;DHT22;58808;59.366;17.970;2022-07-29T08:19:17;22.20;43.30
71142;DHT22;58808;59.366;17.970;2022-07-29T08:21:43;22.50;41.90
71142;DHT22;58808;59.366;17.970;2022-07-29T08:24:08;22.10;41.70
71142;DHT22;58808;59.366;17.970;2022-07-29T08:27:13;21.70;42.50
71142;DHT22;58808;59.366;17.970;2022-07-29T08:29:39;21.60;44.50
71142;DHT22;58808;59.366;17.970;2022-07-29T08:32:05;21.80;43.30
71142;DHT22;58808;59.366;17.970;2022-07-29T08:34:31;22.00;44.70
71142;DHT22;58808;59.366;17.970;2022-07-29T08:36:59;22.20;44.30
71142;DHT22;58808;59.366;17.970;2022-07-29T08:39:25;22.30;41.10
71142;DHT22;58808;59.366;17.970;2022-07-29T08:41:52;22.10;40.60
71142;DHT22;58808;59.366;17.970;2022-07-29T08:44:21;21.80;41.20
71142;DHT22;58808;59.366;17.970;2022-07-29T08:46:47;21.80;42.10
71142;DHT22;58808;59.366;17.970;2022-07-29T08:49:16;21.60;44.10
71142;DHT22;58808;59.366;17.970;2022-07-29T08:51:43;21.70;46.00
71142;DHT22;58808;59.366;17.970;2022-07-29T08:54:16;21.80;45.60
71142;DHT22;58808;59.366;17.970;2022-07-29T08:56:43;21.80;45.80
71142;DHT22;58808;59.366;17.970;2022-07-29T08:59:09;22.00;42.70
71142;DHT22;58808;59.366;17.970;2022-07-29T09:01:37;21.60;43.20
71142;DHT22;58808;59.366;17.970;2022-07-29T09:04:08;21.50;43.90
71142;DHT22;58808;59.366;17.970;2022-07-29T09:06:41;21.50;44.80
71142;DHT22;58808;59.366;17.970;2022-07-29T09:09:08;21.30;43.00
71142;DHT22;58808;59.366;17.970;2022-07-29T09:11:37;21.20;43.20
71142;DHT22;58808;59.366;17.970;2022-07-29T09:14:06;21.20;43.40
71142;DHT22;58808;59.366;17.970;2022-07-29T09:16:52;21.10;46.30
71142;DHT22;58808;59.366;17.970;2022-07-29T09:19:23;21.20;47.90
71142;DHT22;58808;59.366;17.970;2022-07-29T09:21:50;21.60;49.10
71142;DHT22;58808;59.366;17.970;2022-07-29T09:24:36;21.70;46.40
71142;DHT22;58808;59.366;17.970;2022-07-29T09:30:08;22.50;43.50
71142;DHT22;58808;59.366;17.970;2022-07-29T09:32:57;23.00;45.80
71142;DHT22;58808;59.366;17.970;2022-07-29T09:35:24;23.60;43.90
71142;DHT22;58808;59.366;17.970;2022-07-29T09:37:51;23.90;42.40
71142;DHT22;58808;59.366;17.970;2022-07-29T09:40:23;23.80;40.80
71142;DHT22;58808;59.366;17.970;2022-07-29T09:42:52;23.20;41.00
71142;DHT22;58808;59.366;17.970;2022-07-29T09:45:32;22.80;44.30
71142;DHT22;58808;59.366;17.970;2022-07-29T09:47:58;22.80;43.10
71142;DHT22;58808;59.366;17.970;2022-07-29T09:50:36;22.80;40.90
71142;DHT22;58808;59.366;17.970;2022-07-29T09:53:04;22.70;39.70
71142;DHT22;58808;59.366;17.970;2022-07-29T09:55:30;22.80;41.80
71142;DHT22;58808;59.366;17.970;2022-07-29T09:58:15;22.90;40.40
71142;DHT22;58808;59.366;17.970;2022-07-29T10:00:44;22.80;40.40
71142;DHT22;58808;59.366;17.970;2022-07-29T10:03:10;22.90;40.10
71142;DHT22;58808;59.366;17.970;2022-07-29T10:05:40;23.00;41.60
71142;DHT22;58808;59.366;17.970;2022-07-29T10:08:07;22.90;41.00
71142;DHT22;58808;59.366;17.970;2022-07-29T10:10:39;23.10;42.40
71142;DHT22;58808;59.366;17.970;2022-07-29T10:13:09;23.30;41.30
71142;DHT22;58808;59.366;17.970;2022-07-29T10:15:49;23.80;40.40
71142;DHT22;58808;59.366;17.970;2022-07-29T10:18:16;24.30;37.90
71142;DHT22;58808;59.366;17.970;2022-07-29T10:20:44;24.40;34.00
71142;DHT22;58808;59.366;17.970;2022-07-29T10:23:10;24.70;34.70
71142;DHT22;58808;59.366;17.970;2022-07-29T10:25:36;25.00;34.00
71142;DHT22;58808;59.366;17.970;2022-07-29T10:28:02;24.90;34.00
71142;DHT22;58808;59.366;17.970;2022-07-29T10:30:28;24.90;36.10
71142;DHT22;58808;59.366;17.970;2022-07-29T10:33:12;25.20;35.80
71142;DHT22;58808;59.366;17.970;2022-07-29T10:35:56;25.40;31.70
71142;DHT22;58808;59.366;17.970;2022-07-29T10:38:34;25.10;32.90
71142;DHT22;58808;59.366;17.970;2022-07-29T10:44:04;25.10;34.10
71142;DHT22;58808;59.366;17.970;2022-07-29T10:46:36;25.00;33.40
71142;DHT22;58808;59.366;17.970;2022-07-29T10:49:12;24.90;33.00
71142;DHT22;58808;59.366;17.970;2022-07-29T10:54:16;23.50;36.10
71142;DHT22;58808;59.366;17.970;2022-07-29T10:56:42;23.30;37.80
71142;DHT22;58808;59.366;17.970;2022-07-29T11:01:46;23.20;39.00
71142;DHT22;58808;59.366;17.970;2022-07-29T11:04:12;23.90;41.50
71142;DHT22;58808;59.366;17.970;2022-07-29T11:07:06;24.40;37.00
71142;DHT22;58808;59.366;17.970;2022-07-29T11:09:33;24.80;35.40
71142;DHT22;58808;59.366;17.970;2022-07-29T11:11:59;24.80;35.80
71142;DHT22;58808;59.366;17.970;2022-07-29T11:17:21;24.20;35.70
71142;DHT22;58808;59.366;17.970;2022-07-29T11:19:52;24.00;37.90
71142;DHT22;58808;59.366;17.970;2022-07-29T11:22:38;23.50;37.80
71142;DHT22;58808;59.366;17.970;2022-07-29T11:25:14;23.40;40.00
71142;DHT22;58808;59.366;17.970;2022-07-29T11:27:40;23.20;38.10
71142;DHT22;58808;59.366;17.970;2022-07-29T11:30:06;23.20;38.10
71142;DHT22;58808;59.366;17.970;2022-07-29T11:32:38;23.20;38.70
71142;DHT22;58808;59.366;17.970;2022-07-29T11:35:24;23.50;37.40
71142;DHT22;58808;59.366;17.970;2022-07-29T11:41:22;23.40;36.10
71142;DHT22;58808;59.366;17.970;2022-07-29T11:43:59;23.30;36.40
71142;DHT22;58808;59.366;17.970;2022-07-29T11:46:45;23.20;35.90
71142;DHT22;58808;59.366;17.970;2022-07-29T11:49:24;23.20;37.80
71142;DHT22;58808;59.366;17.970;2022-07-29T11:51:52;23.20;37.30
71142;DHT22;58808;59.366;17.970;2022-07-29T11:54:25;23.10;37.80
71142;DHT22;58808;59.366;17.970;2022-07-29T11:56:54;23.00;38.60
71142;DHT22;58808;59.366;17.970;2022-07-29T11:59:21;22.90;39.40
71142;DHT22;58808;59.366;17.970;2022-07-29T12:01:56;22.80;38.80
71142;DHT22;58808;59.366;17.970;2022-07-29T12:04:22;22.70;39.80
71142;DHT22;58808;59.366;17.970;2022-07-29T12:06:58;22.70;38.70
71142;DHT22;58808;59.366;17.970;2022-07-29T12:09:24;22.70;38.70
71142;DHT22;58808;59.366;17.970;2022-07-29T12:11:56;22.70;38.30
71142;DHT22;58808;59.366;17.970;2022-07-29T12:14:29;22.70;38.80
71142;DHT22;58808;59.366;17.970;2022-07-29T12:16:56;23.00;39.70
71142;DHT22;58808;59.366;17.970;2022-07-29T12:19:21;23.10;39.30
71142;DHT22;58808;59.366;17.970;2022-07-29T12:21:50;23.10;38.80
71142;DHT22;58808;59.366;17.970;2022-07-29T12:24:16;23.20;38.60
71142;DHT22;58808;59.366;17.970;2022-07-29T12:26:51;23.00;39.50
71142;DHT22;58808;59.366;17.970;2022-07-29T12:29:18;22.80;39.90
71142;DHT22;58808;59.366;17.970;2022-07-29T12:31:44;22.70;40.60
71142;DHT22;58808;59.366;17.970;2022-07-29T12:34:11;22.70;40.30
71142;DHT22;58808;59.366;17.970;2022-07-29T12:36:38;22.80;41.30
71142;DHT22;58808;59.366;17.970;2022-07-29T12:39:04;22.80;41.30
71142;DHT22;58808;59.366;17.970;2022-07-29T12:41:32;22.80;42.60
71142;DHT22;58808;59.366;17.970;2022-07-29T12:43:58;22.70;41.10
71142;DHT22;58808;59.366;17.970;2022-07-29T12:46:24;23.00;44.40
71142;DHT22;58808;59.366;17.970;2022-07-29T12:48:54;23.20;38.60
71142;DHT22;58808;59.366;17.970;2022-07-29T12:51:29;22.90;37.30
71142;DHT22;58808;59.366;17.970;2022-07-29T12:54:08;23.10;39.10
71142;DHT22;58808;59.366;17.970;2022-07-29T12:56:38;23.00;38.80
71142;DHT22;58808;59.366;17.970;2022-07-29T12:59:21;22.90;39.00
71142;DHT22;58808;59.366;17.970;2022-07-29T13:01:49;23.00;39.10
71142;DHT22;58808;59.366;17.970;2022-07-29T13:04:29;23.30;42.00
71142;DHT22;58808;59.366;17.970;2022-07-29T13:07:06;23.40;39.20
71142;DHT22;58808;59.366;17.970;2022-07-29T13:09:45;23.60;39.50
71142;DHT22;58808;59.366;17.970;2022-07-29T13:12:14;23.90;36.70
71142;DHT22;58808;59.366;17.970;2022-07-29T13:14:47;24.40;36.60
71142;DHT22;58808;59.366;17.970;2022-07-29T13:17:15;24.50;33.40
71142;DHT22;58808;59.366;17.970;2022-07-29T13:22:19;24.20;34.20
71142;DHT22;58808;59.366;17.970;2022-07-29T13:24:53;24.30;33.80
71142;DHT22;58808;59.366;17.970;2022-07-29T13:27:21;24.40;33.90
71142;DHT22;58808;59.366;17.970;2022-07-29T13:29:47;24.60;37.30
71142;DHT22;58808;59.366;17.970;2022-07-29T13:32:14;25.20;36.20
71142;DHT22;58808;59.366;17.970;2022-07-29T13:34:40;25.40;32.50
71142;DHT22;58808;59.366;17.970;2022-07-29T13:37:06;25.60;30.10
71142;DHT22;58808;59.366;17.970;2022-07-29T13:39:31;25.70;29.80
71142;DHT22;58808;59.366;17.970;2022-07-29T13:41:57;26.20;29.30
71142;DHT22;58808;59.366;17.970;2022-07-29T13:44:23;26.70;28.70
71142;DHT22;58808;59.366;17.970;2022-07-29T13:46:48;27.00;28.10
71142;DHT22;58808;59.366;17.970;2022-07-29T13:49:14;27.30;29.20
71142;DHT22;58808;59.366;17.970;2022-07-29T13:51:40;27.60;29.20
71142;DHT22;58808;59.366;17.970;2022-07-29T13:54:05;27.90;29.10
71142;DHT22;58808;59.366;17.970;2022-07-29T13:56:31;28.20;28.50
71142;DHT22;58808;59.366;17.970;2022-07-29T13:58:57;27.70;28.00
71142;DHT22;58808;59.366;17.970;2022-07-29T14:01:23;27.80;29.00
71142;DHT22;58808;59.366;17.970;2022-07-29T14:03:48;27.70;27.80
71142;DHT22;58808;59.366;17.970;2022-07-29T14:06:14;27.70;28.90
71142;DHT22;58808;59.366;17.970;2022-07-29T14:08:40;27.90;27.90
71142;DHT22;58808;59.366;17.970;2022-07-29T14:11:06;28.20;28.20
71142;DHT22;58808;59.366;17.970;2022-07-29T14:13:31;28.40;28.30
71142;DHT22;58808;59.366;17.970;2022-07-29T14:15:57;28.00;26.70
71142;DHT22;58808;59.366;17.970;2022-07-29T14:18:23;27.80;27.50
71142;DHT22;58808;59.366;17.970;2022-07-29T14:20:48;28.00;27.40
71142;DHT22;58808;59.366;17.970;2022-07-29T14:23:14;28.20;26.20
71142;DHT22;58808;59.366;17.970;2022-07-29T14:25:40;28.10;26.10
71142;DHT22;58808;59.366;17.970;2022-07-29T14:28:06;28.10;25.40
71142;DHT22;58808;59.366;17.970;2022-07-29T14:30:32;28.10;25.30
71142;DHT22;58808;59.366;17.970;2022-07-29T14:32:57;28.20;26.20
71142;DHT22;58808;59.366;17.970;2022-07-29T14:35:23;28.20;25.40
71142;DHT22;58808;59.366;17.970;2022-07-29T14:37:49;27.80;24.10
71142;DHT22;58808;59.366;17.970;2022-07-29T14:40:14;27.10;26.20
71142;DHT22;58808;59.366;17.970;2022-07-29T14:42:40;27.00;26.70
71142;DHT22;58808;59.366;17.970;2022-07-29T14:45:07;27.40;26.00
71142;DHT22;58808;59.366;17.970;2022-07-29T14:47:33;27.50;26.30
71142;DHT22;58808;59.366;17.970;2022-07-29T14:49:59;27.80;27.80
71142;DHT22;58808;59.366;17.970;2022-07-29T14:52:25;27.80;24.90
71142;DHT22;58808;59.366;17.970;2022-07-29T14:54:50;27.60;25.10
71142;DHT22;58808;59.366;17.970;2022-07-29T14:57:16;27.60;24.90
71142;DHT22;58808;59.366;17.970;2022-07-29T14:59:42;27.40;25.30
71142;DHT22;58808;59.366;17.970;2022-07-29T15:02:07;27.30;25.40
71142;DHT22;58808;59.366;17.970;2022-07-29T15:04:33;27.10;25.80
71142;DHT22;58808;59.366;17.970;2022-07-29T15:06:59;27.40;26.40
71142;DHT22;58808;59.366;17.970;2022-07-29T15:09:25;27.40;25.10
71142;DHT22;58808;59.366;17.970;2022-07-29T15:11:50;27.10;24.80
71142;DHT22;58808;59.366;17.970;2022-07-29T15:14:18;26.50;25.90
71142;DHT22;58808;59.366;17.970;2022-07-29T15:16:44;26.50;25.80
71142;DHT22;58808;59.366;17.970;2022-07-29T15:19:10;26.60;27.00
71142;DHT22;58808;59.366;17.970;2022-07-29T15:21:36;26.80;25.90
71142;DHT22;58808;59.366;17.970;2022-07-29T15:24:02;26.60;25.30
71142;DHT22;58808;59.366;17.970;2022-07-29T15:26:28;26.70;25.40
71142;DHT22;58808;59.366;17.970;2022-07-29T15:28:54;26.70;26.70
71142;DHT22;58808;59.366;17.970;2022-07-29T15:31:21;26.70;25.50
71142;DHT22;58808;59.366;17.970;2022-07-29T15:33:47;26.50;26.90
71142;DHT22;58808;59.366;17.970;2022-07-29T15:36:13;26.30;27.50
71142;DHT22;58808;59.366;17.970;2022-07-29T15:38:39;25.80;27.20
71142;DHT22;58808;59.366;17.970;2022-07-29T15:41:06;25.50;27.40
71142;DHT22;58808;59.366;17.970;2022-07-29T15:43:31;25.30;28.10
71142;DHT22;58808;59.366;17.970;2022-07-29T15:45:57;25.00;28.80
71142;DHT22;58808;59.366;17.970;2022-07-29T15:48:41;24.90;29.60
71142;DHT22;58808;59.366;17.970;2022-07-29T15:51:09;24.80;30.10
71142;DHT22;58808;59.366;17.970;2022-07-29T15:53:35;24.90;30.10
71142;DHT22;58808;59.366;17.970;2022-07-29T15:56:00;25.00;30.00
71142;DHT22;58808;59.366;17.970;2022-07-29T15:58:26;25.00;30.00